Time;durP1;ratioP1;P1;durP2;ratioP2;P2;SDS_P1;SDS_P2;PMS_P1;PMS_P2;Temp;Humidity;BMP_temperature;BMP_pressure;BME280_temperature;BME280_humidity;BME280_pressure;Samples;Min_cycle;Max_cycle;Signal;HPM_P1;HPM_P2
2023/08/08 00:01:36;;;;;;;0.10;0.10;;;13.50;99.90;;;;;;5039085;28;20773;-82
2023/08/08 00:04:02;;;;;;;0.10;0.10;;;13.50;99.90;;;;;;5055095;28;20275;-83
2023/08/08 00:06:27;;;;;;;0.10;0.10;;;13.50;99.90;;;;;;5048517;28;20194;-83
2023/08/08 00:08:53;;;;;;;0.10;0.10;;;13.50;99.90;;;;;;5076619;28;20724;-84
2023/08/08 00:11:19;;;;;;;0.10;0.10;;;13.50;99.90;;;;;;5032882;28;20254;-83
2023/08/08 00:13:45;;;;;;;0.10;0.10;;;13.50;99.90;;;;;;5039931;28;20198;-83
2023/08/08 00:16:10;;;;;;;0.10;0.10;;;13.40;99.90;;;;;;5041052;28;20195;-81
2023/08/08 00:18:36;;;;;;;0.10;0.10;;;13.40;99.90;;;;;;5044812;28;20448;-83
2023/08/08 00:21:01;;;;;;;0.10;0.10;;;13.40;99.90;;;;;;5038868;28;20195;-83
2023/08/08 00:23:27;;;;;;;0.10;0.10;;;13.40;99.90;;;;;;5039817;28;20556;-83
2023/08/08 00:25:52;;;;;;;0.10;0.10;;;13.40;99.90;;;;;;5052285;28;20538;-84
2023/08/08 00:28:18;;;;;;;0.10;0.10;;;13.30;99.90;;;;;;5048497;28;20837;-83
2023/08/08 00:30:44;;;;;;;0.10;0.10;;;13.30;99.90;;;;;;5045360;28;20214;-82
2023/08/08 00:33:09;;;;;;;0.13;0.13;;;13.30;99.90;;;;;;5047733;28;20237;-83
2023/08/08 00:35:35;;;;;;;0.10;0.10;;;13.30;99.90;;;;;;5050778;28;20596;-82
2023/08/08 00:38:00;;;;;;;0.10;0.10;;;13.20;99.90;;;;;;5053810;28;20277;-82
2023/08/08 00:40:26;;;;;;;0.10;0.10;;;13.20;99.90;;;;;;5061609;28;20183;-82
2023/08/08 00:42:51;;;;;;;0.10;0.10;;;13.10;99.90;;;;;;5048539;28;20686;-83
2023/08/08 00:45:17;;;;;;;0.10;0.10;;;13.10;99.90;;;;;;5039772;28;20547;-83
2023/08/08 00:47:43;;;;;;;0.10;0.10;;;13.10;99.90;;;;;;5036459;28;20231;-83
2023/08/08 00:50:10;;;;;;;0.10;0.10;;;13.10;99.90;;;;;;5037864;28;20297;-85
2023/08/08 00:52:37;;;;;;;0.10;0.10;;;13.10;99.90;;;;;;5038171;28;20194;-82
2023/08/08 00:55:03;;;;;;;0.10;0.10;;;13.20;99.90;;;;;;5078006;28;20532;-83
2023/08/08 00:57:29;;;;;;;0.10;0.10;;;13.10;99.90;;;;;;5044248;28;20444;-83
2023/08/08 00:59:54;;;;;;;0.10;0.10;;;13.10;99.90;;;;;;5047687;28;20441;-84
2023/08/08 01:02:20;;;;;;;0.10;0.10;;;13.00;99.90;;;;;;5042278;28;20190;-83
2023/08/08 01:04:45;;;;;;;0.10;0.10;;;13.10;99.90;;;;;;5053185;28;20658;-84
2023/08/08 01:07:46;;;;;;;0.10;0.10;;;13.10;99.90;;;;;;5065038;28;20269;-84
2023/08/08 01:10:16;;;;;;;0.10;0.10;;;13.00;99.90;;;;;;5051859;28;20244;-82
2023/08/08 01:12:46;;;;;;;0.10;0.10;;;13.00;99.90;;;;;;5042788;28;20959;-83
2023/08/08 01:15:13;;;;;;;0.10;0.10;;;13.00;99.90;;;;;;5046115;28;20502;-83
2023/08/08 01:17:41;;;;;;;0.10;0.10;;;13.10;99.90;;;;;;5059386;28;20429;-85
2023/08/08 01:20:08;;;;;;;0.10;0.10;;;13.00;99.90;;;;;;5047712;28;20449;-82
2023/08/08 01:22:59;;;;;;;0.10;0.10;;;13.00;99.90;;;;;;5035186;28;20840;-81
2023/08/08 01:25:25;;;;;;;0.10;0.10;;;13.00;99.90;;;;;;5030713;28;20745;-83
2023/08/08 01:27:51;;;;;;;0.10;0.10;;;13.00;99.90;;;;;;5041852;28;20944;-83
2023/08/08 01:30:16;;;;;;;0.10;0.10;;;13.00;99.90;;;;;;5044590;28;20670;-82
2023/08/08 01:32:42;;;;;;;0.10;0.10;;;13.00;99.90;;;;;;5053067;28;20224;-83
2023/08/08 01:35:08;;;;;;;0.13;0.13;;;13.00;99.90;;;;;;5048691;28;20183;-83
2023/08/08 01:37:40;;;;;;;0.10;0.10;;;13.00;99.90;;;;;;5048502;28;20682;-83
2023/08/08 01:40:06;;;;;;;0.10;0.10;;;13.00;99.90;;;;;;5042696;28;20524;-83
2023/08/08 01:42:33;;;;;;;0.10;0.10;;;13.00;99.90;;;;;;5037672;28;20444;-83
2023/08/08 01:44:59;;;;;;;0.10;0.10;;;13.10;99.90;;;;;;5049824;28;20448;-83
2023/08/08 01:47:24;;;;;;;0.10;0.10;;;13.10;99.90;;;;;;5058188;28;20532;-83
2023/08/08 01:49:50;;;;;;;0.10;0.10;;;13.10;99.90;;;;;;5037794;28;21090;-83
2023/08/08 01:52:15;;;;;;;0.10;0.10;;;13.10;99.90;;;;;;5042953;28;20213;-83
2023/08/08 01:54:42;;;;;;;0.10;0.10;;;13.10;99.90;;;;;;5052433;28;20187;-81
2023/08/08 01:57:08;;;;;;;0.10;0.10;;;13.20;99.90;;;;;;5065738;28;20189;-84
2023/08/08 01:59:33;;;;;;;0.10;0.10;;;13.20;99.90;;;;;;5064675;28;20800;-84
2023/08/08 02:01:58;;;;;;;0.20;0.20;;;13.10;99.90;;;;;;5048198;28;20655;-83
2023/08/08 02:04:24;;;;;;;0.10;0.10;;;13.10;99.90;;;;;;5066819;28;20186;-84
2023/08/08 02:06:49;;;;;;;0.10;0.10;;;13.10;99.90;;;;;;5050541;28;20597;-82
2023/08/08 02:09:15;;;;;;;0.10;0.10;;;13.10;99.90;;;;;;5054974;28;20214;-83
2023/08/08 02:11:41;;;;;;;0.20;0.20;;;13.10;99.90;;;;;;5044159;28;20761;-83
2023/08/08 02:14:07;;;;;;;0.10;0.10;;;13.00;99.90;;;;;;5042089;28;20241;-83
2023/08/08 02:16:32;;;;;;;0.10;0.10;;;13.00;99.90;;;;;;5057649;28;20453;-83
2023/08/08 02:18:58;;;;;;;0.10;0.10;;;13.00;99.90;;;;;;5057489;28;20183;-82
2023/08/08 02:21:23;;;;;;;0.10;0.10;;;13.00;99.90;;;;;;5051662;28;20191;-84
2023/08/08 02:23:49;;;;;;;0.10;0.10;;;12.90;99.90;;;;;;5052540;28;20190;-84
2023/08/08 02:26:14;;;;;;;0.10;0.10;;;13.00;99.90;;;;;;5039464;28;20179;-83
2023/08/08 02:28:41;;;;;;;0.20;0.20;;;13.00;99.90;;;;;;5044330;28;20204;-83
2023/08/08 02:31:06;;;;;;;0.10;0.10;;;13.00;99.90;;;;;;5060752;28;20228;-83
2023/08/08 02:33:32;;;;;;;0.10;0.10;;;13.00;99.90;;;;;;5040237;28;20941;-83
2023/08/08 02:35:57;;;;;;;0.10;0.10;;;13.00;99.90;;;;;;5047402;28;20936;-82
2023/08/08 02:38:23;;;;;;;0.10;0.10;;;13.00;99.90;;;;;;5046644;28;20190;-84
2023/08/08 02:40:48;;;;;;;0.10;0.10;;;13.00;99.90;;;;;;5053571;28;20189;-83
2023/08/08 02:43:14;;;;;;;0.20;0.20;;;13.10;99.90;;;;;;5053630;28;20171;-82
2023/08/08 02:45:39;;;;;;;0.10;0.10;;;13.10;99.90;;;;;;5038817;28;20629;-82
2023/08/08 02:48:05;;;;;;;0.10;0.10;;;13.10;99.90;;;;;;5051209;28;20222;-83
2023/08/08 02:50:31;;;;;;;0.20;0.20;;;13.10;99.90;;;;;;5047557;28;20664;-82
2023/08/08 02:52:56;;;;;;;0.10;0.10;;;13.10;99.90;;;;;;5054761;28;20446;-83
2023/08/08 02:55:22;;;;;;;0.10;0.10;;;13.00;99.90;;;;;;5040571;28;20215;-83
2023/08/08 02:57:47;;;;;;;0.10;0.10;;;13.00;99.90;;;;;;5043544;28;20201;-83
2023/08/08 03:00:13;;;;;;;0.10;0.10;;;13.00;99.90;;;;;;5047437;28;20712;-83
2023/08/08 03:02:38;;;;;;;0.10;0.10;;;13.00;99.90;;;;;;5031815;28;20200;-85
2023/08/08 03:05:05;;;;;;;0.10;0.10;;;13.00;99.90;;;;;;5043309;28;20190;-83
2023/08/08 03:07:31;;;;;;;0.10;0.10;;;13.10;99.90;;;;;;5049237;28;20551;-84
2023/08/08 03:09:56;;;;;;;0.10;0.10;;;13.10;99.90;;;;;;5067388;28;20443;-82
2023/08/08 03:12:22;;;;;;;0.10;0.10;;;13.10;99.90;;;;;;5051701;28;20187;-83
2023/08/08 03:14:48;;;;;;;0.10;0.10;;;13.20;99.90;;;;;;5045437;28;20195;-83
2023/08/08 03:17:13;;;;;;;0.10;0.10;;;13.20;99.90;;;;;;5050535;28;20202;-82
2023/08/08 03:19:39;;;;;;;0.10;0.10;;;13.30;99.90;;;;;;5041624;28;20650;-83
2023/08/08 03:22:04;;;;;;;0.10;0.10;;;13.30;99.90;;;;;;5036709;28;20255;-84
2023/08/08 03:24:30;;;;;;;0.10;0.10;;;13.30;99.90;;;;;;5049669;28;20281;-84
2023/08/08 03:26:55;;;;;;;0.10;0.10;;;13.20;99.90;;;;;;5075808;28;20677;-84
2023/08/08 03:29:21;;;;;;;0.20;0.20;;;13.10;99.90;;;;;;5047823;28;20212;-82
2023/08/08 03:31:46;;;;;;;0.10;0.10;;;13.00;99.90;;;;;;5053653;28;20279;-82
2023/08/08 03:34:12;;;;;;;0.10;0.10;;;13.00;99.90;;;;;;5037383;28;20188;-83
2023/08/08 03:36:37;;;;;;;0.10;0.10;;;12.90;99.90;;;;;;5040876;28;20277;-83
2023/08/08 03:39:03;;;;;;;0.10;0.10;;;13.00;99.90;;;;;;5046958;28;20294;-83
2023/08/08 03:41:29;;;;;;;0.10;0.10;;;13.00;99.90;;;;;;5048929;28;20201;-84
2023/08/08 03:43:56;;;;;;;0.10;0.10;;;13.10;99.90;;;;;;5051427;28;20527;-83
2023/08/08 03:46:21;;;;;;;0.10;0.10;;;13.10;99.90;;;;;;5045284;28;20445;-83
2023/08/08 03:48:47;;;;;;;0.10;0.10;;;13.00;99.90;;;;;;5045052;28;20464;-83
2023/08/08 03:51:12;;;;;;;0.10;0.10;;;13.00;99.90;;;;;;5042091;28;20674;-83
2023/08/08 03:53:38;;;;;;;0.10;0.10;;;13.00;99.90;;;;;;5053312;28;20185;-84
2023/08/08 03:56:03;;;;;;;0.10;0.10;;;13.00;99.90;;;;;;5049530;28;20341;-84
2023/08/08 03:58:29;;;;;;;0.10;0.10;;;13.00;99.90;;;;;;5047684;28;20188;-83
2023/08/08 04:00:54;;;;;;;0.10;0.10;;;13.10;99.90;;;;;;5042921;28;20198;-85
2023/08/08 04:03:20;;;;;;;0.10;0.10;;;13.10;99.90;;;;;;5039217;28;20283;-83
2023/08/08 04:05:47;;;;;;;0.10;0.10;;;13.20;99.90;;;;;;5038393;28;20826;-85
2023/08/08 04:08:13;;;;;;;0.10;0.10;;;13.10;99.90;;;;;;5048900;28;20270;-82
2023/08/08 04:10:38;;;;;;;0.10;0.10;;;13.00;99.90;;;;;;5051685;28;20517;-82
2023/08/08 04:13:04;;;;;;;0.10;0.10;;;13.00;99.90;;;;;;5043341;28;20505;-82
2023/08/08 04:15:29;;;;;;;0.10;0.10;;;12.90;99.90;;;;;;5049051;28;20198;-83
2023/08/08 04:17:55;;;;;;;0.10;0.10;;;12.80;99.90;;;;;;5038721;28;20230;-83
2023/08/08 04:20:20;;;;;;;0.10;0.10;;;12.90;99.90;;;;;;5042325;28;20174;-82
2023/08/08 04:22:46;;;;;;;0.10;0.10;;;12.80;99.90;;;;;;5048636;28;20214;-83
2023/08/08 04:25:11;;;;;;;0.20;0.20;;;12.90;99.90;;;;;;5051903;28;20222;-83
2023/08/08 04:27:37;;;;;;;0.10;0.10;;;13.00;99.90;;;;;;5035027;28;20192;-82
2023/08/08 04:30:04;;;;;;;0.10;0.10;;;13.00;99.90;;;;;;5051622;28;20562;-83
2023/08/08 04:32:30;;;;;;;0.10;0.10;;;13.00;99.90;;;;;;5045251;28;20604;-83
2023/08/08 04:34:55;;;;;;;0.10;0.10;;;13.00;99.90;;;;;;5050794;28;20440;-83
2023/08/08 04:37:21;;;;;;;0.10;0.10;;;13.00;99.90;;;;;;5039766;28;20441;-83
2023/08/08 04:39:47;;;;;;;0.10;0.10;;;13.10;99.90;;;;;;5042551;28;20183;-83
2023/08/08 04:42:12;;;;;;;0.10;0.10;;;13.10;99.90;;;;;;5052652;28;20274;-85
2023/08/08 04:44:38;;;;;;;0.10;0.10;;;13.20;99.90;;;;;;5035731;28;20193;-83
2023/08/08 04:47:04;;;;;;;0.10;0.10;;;13.20;99.90;;;;;;5045342;28;20348;-83
2023/08/08 04:49:29;;;;;;;0.10;0.10;;;13.20;99.90;;;;;;5062107;28;20309;-82
2023/08/08 04:51:55;;;;;;;0.10;0.10;;;13.20;99.90;;;;;;5048915;28;20560;-84
2023/08/08 04:54:20;;;;;;;0.10;0.10;;;13.20;99.90;;;;;;5044881;28;20183;-84
2023/08/08 04:56:46;;;;;;;0.10;0.10;;;13.20;99.90;;;;;;5043628;28;20195;-83
2023/08/08 04:59:11;;;;;;;0.10;0.10;;;13.30;99.90;;;;;;5045561;28;20265;-84
2023/08/08 05:01:37;;;;;;;0.10;0.10;;;13.40;99.90;;;;;;5042366;28;20198;-82
2023/08/08 05:04:02;;;;;;;0.20;0.20;;;13.40;99.90;;;;;;5033716;28;20203;-85
2023/08/08 05:06:28;;;;;;;0.10;0.10;;;13.30;99.90;;;;;;5034315;28;20190;-83
2023/08/08 05:08:54;;;;;;;0.10;0.10;;;13.20;99.90;;;;;;5053836;28;20190;-84
2023/08/08 05:11:19;;;;;;;0.10;0.10;;;13.20;99.90;;;;;;5047289;28;20305;-84
2023/08/08 05:13:44;;;;;;;0.10;0.10;;;13.10;99.90;;;;;;5039950;28;20195;-86
2023/08/08 05:16:10;;;;;;;0.10;0.10;;;13.10;99.90;;;;;;5067324;28;20199;-83
2023/08/08 05:18:36;;;;;;;0.10;0.10;;;13.00;99.90;;;;;;5063678;28;20851;-84
2023/08/08 05:21:01;;;;;;;0.10;0.10;;;12.90;99.90;;;;;;5045245;28;20557;-83
2023/08/08 05:23:27;;;;;;;0.10;0.10;;;12.90;99.90;;;;;;5039722;28;20663;-82
2023/08/08 05:25:52;;;;;;;0.10;0.10;;;12.90;99.90;;;;;;5042872;28;20194;-84
2023/08/08 05:28:18;;;;;;;0.10;0.10;;;12.90;99.90;;;;;;5054794;28;20189;-84
2023/08/08 05:30:43;;;;;;;0.10;0.10;;;13.00;99.90;;;;;;5038946;28;20218;-84
2023/08/08 05:33:09;;;;;;;0.20;0.20;;;13.10;99.90;;;;;;5041562;28;20199;-83
2023/08/08 05:35:34;;;;;;;0.10;0.10;;;13.20;99.90;;;;;;5041124;28;20209;-84
2023/08/08 05:38:00;;;;;;;0.10;0.10;;;13.20;99.90;;;;;;5047226;28;20183;-83
2023/08/08 05:40:25;;;;;;;0.10;0.10;;;13.20;99.90;;;;;;5057067;28;20245;-85
2023/08/08 05:42:51;;;;;;;0.10;0.10;;;13.10;99.90;;;;;;5068510;28;20192;-84
2023/08/08 05:45:16;;;;;;;0.10;0.10;;;13.00;99.90;;;;;;5043017;28;20187;-82
2023/08/08 05:47:42;;;;;;;0.10;0.10;;;13.00;99.90;;;;;;5036505;28;20281;-83
2023/08/08 05:50:08;;;;;;;0.10;0.10;;;13.10;99.90;;;;;;5041799;28;20674;-83
2023/08/08 05:52:33;;;;;;;0.10;0.10;;;13.10;99.90;;;;;;5049068;28;20209;-83
2023/08/08 05:54:59;;;;;;;0.10;0.10;;;13.10;99.90;;;;;;5061297;28;20746;-82
2023/08/08 05:57:25;;;;;;;0.10;0.10;;;13.10;99.90;;;;;;5043233;28;20182;-81
2023/08/08 05:59:51;;;;;;;0.10;0.10;;;13.10;99.90;;;;;;5048904;28;20183;-82
2023/08/08 06:02:16;;;;;;;0.10;0.10;;;13.10;99.90;;;;;;5046317;28;20859;-82
2023/08/08 06:04:42;;;;;;;0.10;0.10;;;13.10;99.90;;;;;;5059686;28;20187;-81
2023/08/08 06:07:08;;;;;;;0.20;0.20;;;13.10;99.90;;;;;;5038141;28;20283;-82
2023/08/08 06:09:33;;;;;;;0.10;0.10;;;13.10;99.90;;;;;;5036401;28;20195;-82
2023/08/08 06:11:59;;;;;;;0.10;0.10;;;13.30;99.90;;;;;;5040177;28;20252;-83
2023/08/08 06:14:24;;;;;;;0.10;0.10;;;13.50;99.90;;;;;;5036449;28;20189;-85
2023/08/08 06:16:50;;;;;;;0.10;0.10;;;13.50;99.90;;;;;;5059117;28;20178;-83
2023/08/08 06:19:15;;;;;;;0.10;0.10;;;13.40;99.90;;;;;;5035408;28;20187;-81
2023/08/08 06:21:41;;;;;;;0.10;0.10;;;13.50;99.90;;;;;;5037891;28;20182;-82
2023/08/08 06:24:07;;;;;;;0.10;0.10;;;13.50;99.90;;;;;;5056066;28;20661;-82
2023/08/08 06:26:34;;;;;;;0.10;0.10;;;13.50;99.90;;;;;;5044589;28;20472;-81
2023/08/08 06:29:00;;;;;;;0.10;0.10;;;13.50;99.90;;;;;;5049081;28;20498;-81
2023/08/08 06:31:25;;;;;;;0.10;0.10;;;13.50;99.90;;;;;;5053730;28;20476;-82
2023/08/08 06:33:51;;;;;;;0.10;0.10;;;13.60;99.90;;;;;;5052800;28;20190;-82
2023/08/08 06:36:16;;;;;;;0.10;0.10;;;13.70;99.90;;;;;;5069418;28;20193;-84
2023/08/08 06:38:42;;;;;;;0.10;0.10;;;13.80;99.90;;;;;;5049050;28;20328;-81
2023/08/08 06:41:08;;;;;;;0.10;0.10;;;13.90;99.90;;;;;;5051306;28;20197;-81
2023/08/08 06:43:33;;;;;;;0.10;0.10;;;13.90;99.90;;;;;;5047782;28;20187;-82
2023/08/08 06:46:00;;;;;;;0.10;0.10;;;13.90;99.90;;;;;;5050705;28;20178;-81
2023/08/08 06:48:26;;;;;;;0.10;0.10;;;13.90;99.90;;;;;;5044799;28;20716;-82
2023/08/08 06:50:51;;;;;;;0.10;0.10;;;13.80;99.90;;;;;;5050035;28;20472;-80
2023/08/08 06:53:17;;;;;;;0.10;0.10;;;13.90;99.90;;;;;;5042380;28;20265;-81
2023/08/08 06:55:42;;;;;;;0.10;0.10;;;14.00;99.90;;;;;;5042097;28;20183;-81
2023/08/08 06:58:08;;;;;;;0.10;0.10;;;14.10;99.90;;;;;;5037309;28;20448;-80
2023/08/08 07:00:33;;;;;;;0.10;0.10;;;14.30;99.90;;;;;;5039070;28;20247;-80
2023/08/08 07:02:59;;;;;;;0.10;0.10;;;14.50;99.90;;;;;;5035304;28;20647;-82
2023/08/08 07:05:25;;;;;;;0.10;0.10;;;14.70;99.90;;;;;;5049896;28;20182;-81
2023/08/08 07:07:52;;;;;;;0.10;0.10;;;14.90;99.90;;;;;;5047950;28;20195;-81
2023/08/08 07:10:18;;;;;;;0.10;0.10;;;15.10;99.90;;;;;;5048221;28;20469;-81
2023/08/08 07:12:44;;;;;;;0.10;0.10;;;15.10;99.90;;;;;;5046702;28;20560;-81
2023/08/08 07:15:10;;;;;;;0.10;0.10;;;15.10;99.90;;;;;;5040443;28;20441;-81
2023/08/08 07:17:35;;;;;;;0.10;0.10;;;15.10;99.90;;;;;;5037717;28;20642;-81
2023/08/08 07:20:02;;;;;;;0.10;0.10;;;15.20;99.90;;;;;;5039221;28;20445;-82
2023/08/08 07:22:27;;;;;;;0.10;0.10;;;15.10;99.90;;;;;;5051912;28;20183;-82
2023/08/08 07:24:53;;;;;;;0.10;0.10;;;14.70;99.90;;;;;;5035596;28;20457;-83
2023/08/08 07:27:18;;;;;;;0.10;0.10;;;14.40;99.90;;;;;;5041350;28;20222;-83
2023/08/08 07:29:44;;;;;;;0.10;0.10;;;14.30;99.90;;;;;;5040134;28;20198;-84
2023/08/08 07:32:09;;;;;;;0.10;0.10;;;14.10;99.90;;;;;;5043193;28;20233;-83
2023/08/08 07:34:35;;;;;;;0.10;0.10;;;14.00;99.90;;;;;;5044782;28;20780;-84
2023/08/08 07:37:02;;;;;;;0.10;0.10;;;13.90;99.90;;;;;;5038107;28;20604;-82
2023/08/08 07:39:28;;;;;;;0.10;0.10;;;13.90;99.90;;;;;;5040763;28;20192;-83
2023/08/08 07:41:54;;;;;;;0.10;0.10;;;13.80;99.90;;;;;;5043419;28;20456;-81
2023/08/08 07:44:19;;;;;;;0.10;0.10;;;14.10;99.90;;;;;;5045683;28;20737;-83
2023/08/08 07:46:45;;;;;;;0.10;0.10;;;14.20;99.90;;;;;;5056055;28;20942;-85
2023/08/08 07:49:10;;;;;;;0.10;0.10;;;14.00;99.90;;;;;;5033798;28;20235;-84
2023/08/08 07:51:36;;;;;;;0.10;0.10;;;13.80;99.90;;;;;;5036396;28;20305;-83
2023/08/08 07:54:02;;;;;;;0.10;0.10;;;13.80;99.90;;;;;;5053828;28;20265;-85
2023/08/08 07:56:27;;;;;;;0.10;0.10;;;13.70;99.90;;;;;;5036201;28;20868;-82
2023/08/08 07:58:53;;;;;;;0.10;0.10;;;13.70;99.90;;;;;;5044252;28;21056;-81
2023/08/08 08:01:18;;;;;;;0.10;0.10;;;13.80;99.90;;;;;;5042655;28;20199;-82
2023/08/08 08:03:44;;;;;;;0.10;0.10;;;14.20;99.90;;;;;;5033081;28;20187;-82
2023/08/08 08:06:10;;;;;;;0.10;0.10;;;14.70;99.90;;;;;;5035017;28;20222;-82
2023/08/08 08:08:35;;;;;;;0.10;0.10;;;14.90;99.90;;;;;;5037511;28;20187;-83
2023/08/08 08:11:04;;;;;;;0.10;0.10;;;15.20;99.90;;;;;;5032331;28;20725;-83
2023/08/08 08:13:29;;;;;;;0.10;0.10;;;15.70;99.90;;;;;;5055676;28;20198;-82
2023/08/08 08:15:55;;;;;;;0.10;0.10;;;15.80;99.90;;;;;;5035725;28;20529;-84
2023/08/08 08:18:21;;;;;;;0.10;0.10;;;15.50;99.90;;;;;;5044014;28;20533;-83
2023/08/08 08:20:47;;;;;;;0.10;0.10;;;15.10;99.90;;;;;;5043523;28;20191;-84
2023/08/08 08:23:12;;;;;;;0.10;0.10;;;14.70;99.90;;;;;;5036497;28;20213;-84
2023/08/08 08:25:38;;;;;;;0.10;0.10;;;14.60;99.90;;;;;;5034499;28;20454;-83
2023/08/08 08:28:04;;;;;;;0.10;0.10;;;14.70;99.90;;;;;;5053353;28;20190;-83
2023/08/08 08:30:29;;;;;;;0.10;0.10;;;15.00;99.90;;;;;;5054049;28;20662;-82
2023/08/08 08:32:56;;;;;;;0.10;0.10;;;15.50;99.90;;;;;;5066171;28;20256;-83
2023/08/08 08:35:22;;;;;;;0.10;0.10;;;15.50;99.90;;;;;;5050958;28;20576;-83
2023/08/08 08:37:47;;;;;;;0.10;0.10;;;15.70;99.90;;;;;;5050506;28;20433;-82
2023/08/08 08:40:14;;;;;;;0.10;0.10;;;16.10;99.90;;;;;;5043879;28;20276;-82
2023/08/08 08:42:40;;;;;;;0.10;0.10;;;16.00;99.90;;;;;;5057921;28;20190;-83
2023/08/08 08:45:08;;;;;;;0.10;0.10;;;16.20;99.90;;;;;;5052101;28;20456;-83
2023/08/08 08:47:36;;;;;;;0.10;0.10;;;16.20;99.90;;;;;;5050158;28;20556;-83
2023/08/08 08:50:04;;;;;;;0.10;0.10;;;16.60;99.90;;;;;;5049885;28;20444;-83
2023/08/08 08:52:30;;;;;;;0.10;0.10;;;17.00;99.90;;;;;;5044424;28;20437;-82
2023/08/08 08:54:55;;;;;;;0.10;0.10;;;16.90;99.90;;;;;;5037011;28;20433;-83
2023/08/08 08:57:23;;;;;;;0.10;0.10;;;17.20;99.90;;;;;;5057284;28;20786;-83
2023/08/08 08:59:49;;;;;;;0.10;0.10;;;16.70;99.90;;;;;;5056817;28;20588;-83
2023/08/08 09:02:15;;;;;;;0.10;0.10;;;16.50;99.90;;;;;;5050451;28;20413;-82
2023/08/08 09:04:41;;;;;;;0.10;0.10;;;16.20;99.90;;;;;;5045944;28;20447;-82
2023/08/08 09:07:08;;;;;;;0.10;0.10;;;16.20;99.90;;;;;;5041691;28;20183;-82
2023/08/08 09:09:34;;;;;;;0.10;0.10;;;16.00;99.90;;;;;;5032779;28;20441;-82
2023/08/08 09:12:03;;;;;;;0.10;0.10;;;16.00;99.90;;;;;;5041208;28;20481;-83
2023/08/08 09:14:28;;;;;;;0.10;0.10;;;16.40;99.90;;;;;;5041071;28;20186;-81
2023/08/08 09:16:54;;;;;;;0.10;0.10;;;16.40;99.90;;;;;;5043588;28;20565;-82
2023/08/08 09:19:21;;;;;;;0.10;0.10;;;16.90;99.90;;;;;;5040370;28;20190;-82
2023/08/08 09:21:48;;;;;;;0.10;0.10;;;16.90;99.90;;;;;;5044982;28;20250;-82
2023/08/08 09:24:14;;;;;;;0.10;0.10;;;16.60;99.90;;;;;;5071320;28;20556;-81
2023/08/08 09:26:40;;;;;;;0.10;0.10;;;16.50;99.90;;;;;;5049975;28;20405;-81
2023/08/08 09:29:06;;;;;;;0.10;0.10;;;16.10;99.90;;;;;;5054344;28;20476;-81
2023/08/08 09:31:34;;;;;;;0.10;0.10;;;16.10;99.90;;;;;;5049814;28;21056;-82
2023/08/08 09:34:01;;;;;;;0.10;0.10;;;16.20;99.90;;;;;;5042792;28;20224;-82
2023/08/08 09:36:27;;;;;;;0.10;0.10;;;16.20;99.90;;;;;;5044213;28;20952;-82
2023/08/08 09:38:54;;;;;;;0.10;0.10;;;16.30;99.90;;;;;;5045314;28;20473;-82
2023/08/08 09:41:21;;;;;;;0.10;0.10;;;17.10;99.90;;;;;;5045503;28;20529;-83
2023/08/08 09:43:52;;;;;;;0.10;0.10;;;17.70;99.90;;;;;;5046031;28;20437;-83
2023/08/08 09:46:21;;;;;;;0.10;0.10;;;18.20;99.90;;;;;;5040113;28;20444;-82
2023/08/08 09:48:47;;;;;;;0.10;0.10;;;18.40;99.90;;;;;;5041026;28;20481;-82
2023/08/08 09:51:14;;;;;;;0.10;0.10;;;18.10;99.90;;;;;;5043676;28;20477;-83
2023/08/08 09:53:40;;;;;;;0.10;0.10;;;17.90;99.90;;;;;;5049767;28;20909;-81
2023/08/08 09:56:07;;;;;;;0.10;0.10;;;17.70;99.90;;;;;;5060439;28;20443;-81
2023/08/08 09:58:33;;;;;;;0.10;0.10;;;17.40;99.90;;;;;;5046691;28;20975;-82
2023/08/08 10:00:59;;;;;;;0.10;0.10;;;17.70;99.90;;;;;;5034508;28;20454;-82
2023/08/08 10:03:26;;;;;;;0.10;0.10;;;17.60;99.90;;;;;;5049064;28;22455;-82
2023/08/08 10:05:52;;;;;;;0.10;0.10;;;17.60;99.90;;;;;;5036677;28;20290;-83
2023/08/08 10:08:18;;;;;;;0.10;0.10;;;17.30;99.90;;;;;;5038990;28;20437;-83
2023/08/08 10:10:47;;;;;;;0.10;0.10;;;17.30;99.90;;;;;;5069092;28;20254;-82
2023/08/08 10:13:26;;;;;;;0.10;0.10;;;17.70;99.90;;;;;;5046854;28;20456;-83
2023/08/08 10:15:52;;;;;;;0.10;0.10;;;17.80;99.90;;;;;;5034399;28;20820;-83
2023/08/08 10:18:21;;;;;;;0.10;0.10;;;18.30;99.90;;;;;;5036996;28;20480;-84
2023/08/08 10:20:49;;;;;;;0.10;0.00;;;19.40;99.90;;;;;;5052229;28;20857;-83
2023/08/08 10:23:16;;;;;;;0.10;0.00;;;19.80;99.90;;;;;;5044992;28;20488;-87
2023/08/08 10:25:46;;;;;;;0.10;0.00;;;20.00;99.90;;;;;;5044913;28;20448;-85
2023/08/08 10:28:14;;;;;;;0.10;0.10;;;20.70;99.90;;;;;;5044402;28;20460;-83
2023/08/08 10:30:55;;;;;;;0.10;0.00;;;20.50;99.90;;;;;;5058874;28;20468;-87
2023/08/08 10:33:24;;;;;;;0.10;0.00;;;21.20;99.90;;;;;;5049500;28;20480;-84
2023/08/08 10:36:06;;;;;;;0.10;0.00;;;21.40;99.90;;;;;;5065765;28;20449;-84
2023/08/08 10:38:54;;;;;;;0.10;0.00;;;21.60;99.90;;;;;;5034939;28;20438;-84
2023/08/08 10:41:21;;;;;;;0.10;0.10;;;21.20;99.90;;;;;;5045258;28;20525;-82
2023/08/08 10:43:57;;;;;;;0.10;0.00;;;21.10;99.90;;;;;;5062855;28;20499;-86
2023/08/08 10:46:30;;;;;;;0.10;0.00;;;21.30;99.90;;;;;;5046476;28;20447;-85
2023/08/08 10:49:00;;;;;;;0.10;0.00;;;20.60;99.90;;;;;;5068059;28;20512;-83
2023/08/08 10:51:42;;;;;;;0.10;0.00;;;21.20;99.90;;;;;;5029772;28;20568;-82
2023/08/08 10:54:27;;;;;;;0.10;0.00;;;21.10;99.90;;;;;;5058398;28;20421;-83
2023/08/08 10:56:55;;;;;;;0.10;0.00;;;20.20;99.90;;;;;;5041371;28;20504;-84
2023/08/08 10:59:26;;;;;;;0.10;0.00;;;19.30;99.90;;;;;;5048627;28;20488;-84
2023/08/08 11:01:52;;;;;;;0.10;0.00;;;18.90;99.90;;;;;;5046041;28;20441;-83
2023/08/08 11:04:26;;;;;;;0.10;0.00;;;18.70;99.90;;;;;;5042614;28;20453;-83
2023/08/08 11:06:53;;;;;;;0.10;0.00;;;18.90;99.90;;;;;;5039423;28;20445;-83
2023/08/08 11:09:19;;;;;;;0.10;0.10;;;18.90;99.90;;;;;;5038703;28;20441;-82
2023/08/08 11:11:46;;;;;;;0.10;0.00;;;19.10;99.90;;;;;;5047186;28;20481;-83
2023/08/08 11:14:13;;;;;;;0.10;0.00;;;19.10;99.90;;;;;;5034140;28;20198;-81
2023/08/08 11:16:39;;;;;;;0.10;0.00;;;18.90;99.90;;;;;;5043483;28;20874;-83
2023/08/08 11:19:05;;;;;;;0.10;0.00;;;18.40;99.90;;;;;;5036402;28;20461;-83
2023/08/08 11:21:34;;;;;;;0.10;0.10;;;18.00;99.90;;;;;;5038311;28;20241;-83
2023/08/08 11:24:00;;;;;;;0.10;0.10;;;18.00;99.90;;;;;;5044121;28;20313;-84
2023/08/08 11:26:27;;;;;;;0.10;0.00;;;18.90;99.90;;;;;;5047235;28;20532;-84
2023/08/08 11:28:53;;;;;;;0.10;0.10;;;19.40;99.90;;;;;;5057772;28;20475;-83
2023/08/08 11:31:21;;;;;;;0.10;0.10;;;19.60;99.90;;;;;;5048799;28;20485;-89
2023/08/08 11:33:48;;;;;;;0.10;0.00;;;19.80;99.90;;;;;;5066334;28;20190;-87
2023/08/08 11:36:15;;;;;;;0.10;0.00;;;20.00;99.90;;;;;;5050859;28;20461;-85
2023/08/08 11:38:43;;;;;;;0.10;0.00;;;19.70;99.90;;;;;;5066795;28;20949;-84
2023/08/08 11:41:16;;;;;;;0.10;0.00;;;20.70;99.90;;;;;;5050778;28;21074;-85
2023/08/08 11:43:41;;;;;;;0.10;0.00;;;20.60;99.90;;;;;;5051797;28;20413;-85
2023/08/08 11:46:12;;;;;;;0.10;0.00;;;20.20;99.90;;;;;;5050754;28;20437;-86
2023/08/08 11:48:38;;;;;;;0.10;0.00;;;20.20;99.90;;;;;;5050661;28;20331;-87
2023/08/08 11:51:05;;;;;;;0.10;0.00;;;20.60;99.90;;;;;;5047456;28;20543;-86
2023/08/08 11:53:30;;;;;;;0.10;0.00;;;21.00;99.90;;;;;;5044812;28;20441;-84
2023/08/08 11:55:59;;;;;;;0.10;0.00;;;21.00;99.90;;;;;;5050950;28;20459;-84
2023/08/08 11:58:25;;;;;;;0.10;0.00;;;20.60;99.90;;;;;;5037809;28;20187;-84
2023/08/08 12:00:51;;;;;;;0.10;0.00;;;20.20;99.90;;;;;;5036223;28;20532;-85
2023/08/08 12:03:18;;;;;;;0.10;0.00;;;20.90;99.90;;;;;;5032058;28;20414;-85
2023/08/08 12:05:48;;;;;;;0.10;0.00;;;21.80;99.90;;;;;;5038631;28;20449;-85
2023/08/08 12:08:18;;;;;;;0.10;0.00;;;20.90;99.90;;;;;;5084698;28;20444;-83
2023/08/08 12:10:52;;;;;;;0.10;0.00;;;20.70;99.90;;;;;;5045815;28;20524;-84
2023/08/08 12:13:26;;;;;;;0.10;0.00;;;20.40;99.90;;;;;;5038301;28;20593;-89
2023/08/08 12:15:53;;;;;;;0.10;0.10;;;19.20;99.90;;;;;;5038047;28;20441;-85
2023/08/08 12:18:19;;;;;;;0.10;0.00;;;19.00;99.90;;;;;;5059160;28;21396;-86
2023/08/08 12:20:45;;;;;;;0.10;0.00;;;18.50;99.90;;;;;;5053766;28;21087;-87
2023/08/08 12:23:11;;;;;;;0.10;0.00;;;18.00;99.90;;;;;;5042924;28;20453;-85
2023/08/08 12:25:37;;;;;;;0.10;0.10;;;18.10;99.90;;;;;;5050765;28;20448;-86
2023/08/08 12:28:03;;;;;;;0.10;0.00;;;19.50;99.90;;;;;;5050345;28;20443;-87
2023/08/08 12:30:30;;;;;;;0.10;0.00;;;20.00;99.90;;;;;;5047271;28;20187;-85
2023/08/08 12:32:56;;;;;;;0.10;0.00;;;20.80;99.90;;;;;;5045004;28;20464;-87
2023/08/08 12:35:21;;;;;;;0.10;0.00;;;21.60;99.90;;;;;;5043882;28;20191;-87
2023/08/08 12:37:47;;;;;;;0.10;0.00;;;22.00;99.90;;;;;;5031636;28;20484;-86
2023/08/08 12:40:13;;;;;;;0.10;0.00;;;23.00;99.90;;;;;;5031933;28;20215;-86
2023/08/08 12:42:38;;;;;;;0.10;0.00;;;23.20;99.90;;;;;;5048107;28;20720;-86
2023/08/08 12:45:05;;;;;;;0.10;0.00;;;23.30;99.90;;;;;;5037978;28;20217;-85